createdAt,value
2023-03-22T00:01:03.448Z,10.2
2023-03-22T00:03:04.312Z,10.2
2023-03-22T00:05:03.346Z,10.1
2023-03-22T00:07:03.336Z,10.1
2023-03-22T00:09:04.292Z,10.1
2023-03-22T00:11:03.357Z,10
2023-03-22T00:13:03.685Z,10
2023-03-22T00:15:03.928Z,10
2023-03-22T00:17:04.098Z,10
2023-03-22T00:19:03.776Z,9.8
2023-03-22T00:21:04.125Z,9.9
2023-03-22T00:23:03.320Z,9.9
2023-03-22T00:25:03.605Z,9.7
2023-03-22T00:27:04.634Z,9.9
2023-03-22T00:29:03.334Z,9.9
2023-03-22T00:31:03.421Z,9.7
2023-03-22T00:33:03.930Z,9.8
2023-03-22T00:35:03.780Z,9.6
2023-03-22T00:37:03.463Z,9.7
2023-03-22T00:39:12.223Z,9.6
2023-03-22T00:41:03.801Z,9.8
2023-03-22T00:43:03.351Z,9.5
2023-03-22T00:45:04.328Z,9.6
2023-03-22T00:47:03.811Z,9.5
2023-03-22T00:49:03.924Z,9.5
2023-03-22T00:53:03.789Z,9.6
2023-03-22T00:55:03.812Z,9.7
2023-03-22T00:57:04.308Z,9.7
2023-03-22T00:59:03.336Z,9.7
2023-03-22T01:05:03.366Z,9.7
2023-03-22T01:07:03.368Z,9.6
2023-03-22T01:09:03.823Z,9.6
2023-03-22T01:11:03.449Z,9.6
2023-03-22T01:13:03.448Z,9.5
2023-03-22T01:15:04.268Z,9.6
2023-03-22T01:17:03.846Z,9.6
2023-03-22T01:19:03.453Z,9.6
2023-03-22T01:21:04.238Z,9.6
2023-03-22T01:23:03.791Z,9.5
2023-03-22T01:25:03.525Z,9.5
2023-03-22T01:27:04.504Z,9.4
2023-03-22T01:29:03.418Z,9.5
2023-03-22T01:31:03.357Z,9.5
2023-03-22T01:33:03.931Z,9.4
2023-03-22T01:35:03.428Z,9.4
2023-03-22T01:37:03.387Z,9.4
2023-03-22T01:39:04.549Z,9.3
2023-03-22T01:41:03.353Z,9.4
2023-03-22T01:43:03.325Z,9.3
2023-03-22T01:45:03.816Z,9.2
2023-03-22T01:49:03.500Z,9.3
2023-03-22T01:51:03.903Z,9.4
2023-03-22T01:53:03.482Z,9.3
2023-03-22T01:55:03.469Z,9.4
2023-03-22T01:57:03.911Z,9.4
2023-03-22T01:59:04.287Z,9.5
2023-03-22T02:01:04.065Z,9.5
2023-03-22T02:03:04.302Z,9.4
2023-03-22T02:07:03.448Z,9.3
2023-03-22T02:09:04.189Z,9.3
2023-03-22T02:13:03.338Z,9.3
2023-03-22T02:15:03.897Z,9.3
2023-03-22T02:17:03.812Z,9.3
2023-03-22T02:19:03.458Z,9.3
2023-03-22T02:21:04.286Z,9.3
2023-03-22T02:23:03.375Z,9.2
2023-03-22T02:25:03.480Z,9.1
2023-03-22T02:27:03.952Z,9.1
2023-03-22T02:29:03.474Z,9
2023-03-22T02:31:03.468Z,9
2023-03-22T02:33:03.985Z,9.1
2023-03-22T02:35:03.446Z,9.1
2023-03-22T02:37:03.449Z,9
2023-03-22T02:39:03.867Z,9
2023-03-22T02:41:03.890Z,9.2
2023-03-22T02:43:03.444Z,9.1
2023-03-22T02:45:03.921Z,9.2
2023-03-22T02:49:11.031Z,9
2023-03-22T02:51:03.817Z,9.1
2023-03-22T02:53:12.348Z,9
2023-03-22T02:55:03.365Z,9
2023-03-22T02:57:03.931Z,9
2023-03-22T02:59:03.434Z,9
2023-03-22T03:01:04.121Z,8.9
2023-03-22T03:03:03.816Z,8.8
2023-03-22T03:05:04.725Z,8.8
2023-03-22T03:07:03.843Z,8.7
2023-03-22T03:09:03.842Z,8.6
2023-03-22T03:13:03.467Z,8.6
2023-03-22T03:15:03.931Z,8.6
2023-03-22T03:17:03.474Z,8.6
2023-03-22T03:19:03.439Z,8.4
2023-03-22T03:21:03.879Z,8.4
2023-03-22T03:23:03.402Z,8.4
2023-03-22T03:25:03.467Z,8.2
2023-03-22T03:27:03.932Z,8.1
2023-03-22T03:29:03.455Z,8.1
2023-03-22T03:31:03.851Z,8.2
2023-03-22T03:33:03.937Z,8.1
2023-03-22T03:35:03.359Z,8.2
2023-03-22T03:37:03.361Z,8
2023-03-22T03:39:04.406Z,8
2023-03-22T03:41:03.376Z,8
2023-03-22T03:43:03.367Z,7.8
2023-03-22T03:45:03.944Z,7.8
2023-03-22T03:49:03.447Z,7.9
2023-03-22T03:51:03.909Z,7.8
2023-03-22T03:53:03.344Z,7.8
2023-03-22T03:55:03.458Z,7.9
2023-03-22T03:57:04.185Z,7.9
2023-03-22T03:59:04.107Z,7.8
2023-03-22T04:01:03.452Z,7.7
2023-03-22T04:03:03.930Z,7.6
2023-03-22T04:05:03.377Z,7.7
2023-03-22T04:07:03.877Z,7.8
2023-03-22T04:09:03.973Z,7.8
2023-03-22T04:11:03.450Z,7.8
2023-03-22T04:13:09.719Z,7.8
2023-03-22T04:17:03.537Z,7.8
2023-03-22T04:19:04.095Z,7.7
2023-03-22T04:21:04.595Z,7.7
2023-03-22T04:23:03.887Z,7.7
2023-03-22T04:25:04.656Z,7.6
2023-03-22T04:29:03.758Z,7.6
2023-03-22T04:33:04.298Z,7.5
2023-03-22T04:35:03.387Z,7.5
2023-03-22T04:37:03.378Z,7.4
2023-03-22T04:39:04.046Z,7.5
2023-03-22T04:41:03.459Z,7.4
2023-03-22T04:43:03.463Z,7.5
2023-03-22T04:45:03.964Z,7.5
2023-03-22T04:47:03.527Z,7.3
2023-03-22T04:49:03.425Z,7.2
2023-03-22T04:51:04.459Z,7.2
2023-03-22T04:53:03.381Z,7.2
2023-03-22T04:55:03.401Z,7.2
2023-03-22T04:57:03.902Z,7.2
2023-03-22T04:59:03.761Z,7
2023-03-22T05:01:03.407Z,6.9
2023-03-22T05:03:04.358Z,6.9
2023-03-22T05:07:03.421Z,6.9
2023-03-22T05:09:03.949Z,7
2023-03-22T05:11:03.463Z,7
2023-03-22T05:13:03.492Z,6.8
2023-03-22T05:15:03.932Z,6.6
2023-03-22T05:17:03.498Z,6.6
2023-03-22T05:19:03.468Z,6.7
2023-03-22T05:21:03.873Z,6.6
2023-03-22T05:23:03.477Z,6.7
2023-03-22T05:25:04.157Z,6.9
2023-03-22T05:27:04.003Z,6.9
2023-03-22T05:29:03.469Z,6.9
2023-03-22T05:31:03.572Z,7.1
2023-03-22T05:33:03.869Z,7.2
2023-03-22T05:35:03.455Z,7
2023-03-22T05:37:03.423Z,7
2023-03-22T05:41:04.121Z,7.2
2023-03-22T05:43:03.504Z,7.3
2023-03-22T05:45:03.827Z,7.2
2023-03-22T05:47:03.511Z,7.3
2023-03-22T05:49:03.610Z,7.3
2023-03-22T05:51:03.926Z,7.2
2023-03-22T05:55:03.470Z,7.2
2023-03-22T05:57:03.903Z,7.2
2023-03-22T05:59:03.388Z,7.4
2023-03-22T06:01:03.412Z,7.3
2023-03-22T06:03:03.981Z,7.3
2023-03-22T06:05:04.894Z,7.5
2023-03-22T06:07:03.410Z,7.6
2023-03-22T06:09:15.832Z,7.5
2023-03-22T06:11:03.414Z,7.7
2023-03-22T06:13:03.944Z,7.7
2023-03-22T06:15:04.338Z,7.8
2023-03-22T06:17:03.416Z,7.7
2023-03-22T06:19:03.370Z,7.8
2023-03-22T06:21:04.379Z,7.9
2023-03-22T06:23:03.420Z,7.8
2023-03-22T06:25:03.416Z,7.9
2023-03-22T06:27:04.359Z,8
2023-03-22T06:31:03.523Z,8
2023-03-22T06:33:03.946Z,8
2023-03-22T06:35:03.389Z,8.1
2023-03-22T06:37:03.434Z,8.2
2023-03-22T06:39:03.983Z,8.2
2023-03-22T06:43:05.768Z,8.4
2023-03-22T06:45:03.907Z,8.6
2023-03-22T06:47:03.770Z,8.8
2023-03-22T06:49:03.887Z,8.9
2023-03-22T06:51:03.912Z,9
2023-03-22T06:53:04.226Z,9.1
2023-03-22T06:55:03.465Z,9.2
2023-03-22T06:57:03.901Z,9.5
2023-03-22T06:59:03.412Z,10.7
2023-03-22T07:01:03.559Z,11.3
2023-03-22T07:03:04.006Z,11.4
2023-03-22T07:09:03.891Z,13.1
2023-03-22T07:13:03.476Z,13.3
2023-03-22T07:15:03.954Z,13.4
2023-03-22T07:17:03.483Z,13.6
2023-03-22T07:19:03.375Z,13.7
2023-03-22T07:21:03.969Z,13.8
2023-03-22T07:23:03.389Z,13.8
2023-03-22T07:25:03.949Z,13.9
2023-03-22T07:27:04.337Z,13.7
2023-03-22T07:29:03.602Z,13.6
2023-03-22T07:31:04.168Z,13.6
2023-03-22T07:33:04.605Z,13.7
2023-03-22T07:35:04.159Z,13.7
2023-03-22T07:37:03.382Z,13.8
2023-03-22T07:41:03.406Z,14.2
2023-03-22T07:43:03.790Z,14.2
2023-03-22T07:47:03.430Z,14.2
2023-03-22T07:49:03.492Z,14.4
2023-03-22T07:51:04.393Z,14.5
2023-03-22T07:53:03.816Z,14.4
2023-03-22T07:55:03.872Z,14.4
2023-03-22T07:57:03.980Z,14.6
2023-03-22T07:59:03.517Z,14.6
2023-03-22T08:01:03.541Z,14.8
2023-03-22T08:05:03.425Z,15
2023-03-22T08:07:03.530Z,15.2
2023-03-22T08:09:04.050Z,14.6
2023-03-22T08:11:03.498Z,15.1
2023-03-22T08:13:03.496Z,13.9
2023-03-22T08:15:04.413Z,14.7
2023-03-22T08:17:03.420Z,14.9
2023-03-22T08:19:03.883Z,14.6
2023-03-22T08:21:03.950Z,14.2
2023-03-22T08:23:03.476Z,14.3
2023-03-22T08:25:03.987Z,14.7
2023-03-22T08:27:04.022Z,15.2
2023-03-22T08:29:03.892Z,15.9
2023-03-22T08:31:03.494Z,15.7
2023-03-22T08:33:03.854Z,15.6
2023-03-22T08:35:03.411Z,15.6
2023-03-22T08:37:03.513Z,15.8
2023-03-22T08:39:06.801Z,15.7
2023-03-22T08:41:03.505Z,15.7
2023-03-22T08:43:03.775Z,15.6
2023-03-22T08:45:12.347Z,15.6
2023-03-22T08:49:03.480Z,15.8
2023-03-22T08:51:04.378Z,15.9
2023-03-22T08:53:03.395Z,15.9
2023-03-22T08:55:03.496Z,15.9
2023-03-22T08:57:03.944Z,15.9
2023-03-22T08:59:03.435Z,15.9
2023-03-22T09:01:04.349Z,15.9
2023-03-22T09:03:04.370Z,15.7
2023-03-22T09:05:04.150Z,15.9
2023-03-22T09:09:11.906Z,16
2023-03-22T09:11:03.780Z,16.1
2023-03-22T09:13:03.497Z,15.9
2023-03-22T09:15:04.431Z,16
2023-03-22T09:17:03.396Z,16
2023-03-22T09:19:03.402Z,16
2023-03-22T09:21:03.915Z,16.1
2023-03-22T09:25:03.413Z,16.1
2023-03-22T09:27:04.097Z,16.1
2023-03-22T09:29:05.675Z,16.1
2023-03-22T09:31:03.430Z,16.2
2023-03-22T09:33:03.922Z,16.2
2023-03-22T09:35:03.415Z,16.2
2023-03-22T09:37:03.486Z,16.2
2023-03-22T09:39:04.324Z,16.2
2023-03-22T09:41:03.859Z,16.2
2023-03-22T09:43:03.592Z,16.1
2023-03-22T09:45:12.650Z,16.2
2023-03-22T09:47:03.462Z,16.2
2023-03-22T09:49:04.813Z,16.2
2023-03-22T09:51:03.921Z,16.3
2023-03-22T09:53:03.398Z,16.3
2023-03-22T09:55:03.498Z,16.2
2023-03-22T09:57:04.457Z,16.1
2023-03-22T10:01:03.825Z,16.1
2023-03-22T10:03:04.073Z,16.1
2023-03-22T10:05:03.840Z,16.1
2023-03-22T10:07:03.490Z,16.1
2023-03-22T10:11:03.389Z,16.2
2023-03-22T10:13:03.424Z,16.2
2023-03-22T10:15:03.953Z,16.2
2023-03-22T10:17:03.493Z,16.1
2023-03-22T10:21:04.385Z,16.2
2023-03-22T10:23:03.404Z,16.2
2023-03-22T10:25:03.407Z,16.3
2023-03-22T10:29:04.263Z,16.3
2023-03-22T10:31:05.736Z,16.4
2023-03-22T10:33:04.482Z,16.4
2023-03-22T10:35:03.401Z,16.3
2023-03-22T10:37:04.157Z,16.4
2023-03-22T10:39:12.670Z,16.5
2023-03-22T10:41:03.532Z,16.6
2023-03-22T10:43:03.517Z,16.6
2023-03-22T10:45:03.927Z,16.6
2023-03-22T10:47:03.453Z,16.6
2023-03-22T10:49:03.510Z,16.6
2023-03-22T10:51:04.045Z,16.6
2023-03-22T10:53:03.541Z,16.5
2023-03-22T10:55:04.642Z,16.5
2023-03-22T10:57:03.994Z,16.4
2023-03-22T10:59:03.405Z,16.5
2023-03-22T11:01:03.587Z,16.5
2023-03-22T11:03:03.960Z,16.5
2023-03-22T11:05:03.948Z,16.6
2023-03-22T11:07:03.502Z,16.6
2023-03-22T11:09:04.703Z,16.6
2023-03-22T11:13:09.651Z,16.6
2023-03-22T11:15:04.351Z,16.6
2023-03-22T11:17:03.957Z,16.5
2023-03-22T11:19:03.970Z,16.6
2023-03-22T11:21:03.949Z,16.6
2023-03-22T11:23:04.979Z,16.6
2023-03-22T11:25:03.760Z,16.6
2023-03-22T11:27:04.058Z,16.6
2023-03-22T11:29:03.717Z,16.6
2023-03-22T11:31:03.899Z,16.6
2023-03-22T11:35:03.401Z,16.8
2023-03-22T11:37:03.870Z,16.8
2023-03-22T11:39:04.474Z,16.8
2023-03-22T11:41:03.408Z,16.8
2023-03-22T11:43:03.418Z,16.9
2023-03-22T11:45:03.985Z,16.9
2023-03-22T11:47:03.528Z,16.9
2023-03-22T11:49:03.928Z,16.9
2023-03-22T11:53:03.401Z,16.9
2023-03-22T11:55:03.448Z,16.9
2023-03-22T11:57:03.978Z,16.9
2023-03-22T11:59:03.524Z,17
2023-03-22T12:01:04.063Z,17
2023-03-22T12:05:04.749Z,17.1
2023-03-22T12:07:03.405Z,17
2023-03-22T12:09:03.929Z,17.1
2023-03-22T12:11:03.437Z,17.1
2023-03-22T12:13:03.416Z,17.1
2023-03-22T12:15:04.630Z,17.1
2023-03-22T12:17:04.114Z,17
2023-03-22T12:19:03.424Z,17.1
2023-03-22T12:21:04.292Z,17.1
2023-03-22T12:23:03.431Z,17.2
2023-03-22T12:25:03.880Z,17.2
2023-03-22T12:27:03.971Z,17.1
2023-03-22T12:29:03.676Z,17.2
2023-03-22T12:31:03.528Z,17.2
2023-03-22T12:33:03.974Z,17.2
2023-03-22T12:37:03.431Z,17.2
2023-03-22T12:39:03.864Z,17.2
2023-03-22T12:41:03.425Z,17.2
2023-03-22T12:45:05.337Z,17.3
2023-03-22T12:47:03.533Z,17.3
2023-03-22T12:49:03.488Z,17.3
2023-03-22T12:51:11.737Z,17.3
2023-03-22T12:53:03.418Z,17.3
2023-03-22T12:55:03.882Z,17.3
2023-03-22T12:59:03.426Z,17.4
2023-03-22T13:03:04.889Z,17.4
2023-03-22T13:05:03.415Z,17.3
2023-03-22T13:07:03.410Z,17.3
2023-03-22T13:09:04.280Z,17.3
2023-03-22T13:11:03.778Z,17.4
2023-03-22T13:13:04.974Z,17.4
2023-03-22T13:15:03.928Z,17.4
2023-03-22T13:17:03.946Z,17.4
2023-03-22T13:19:03.526Z,17.4
2023-03-22T13:21:04.742Z,17.4
2023-03-22T13:25:03.506Z,17.4
2023-03-22T13:27:04.060Z,17.4
2023-03-22T13:29:03.503Z,17.4
2023-03-22T13:31:03.546Z,17.5
2023-03-22T13:33:04.027Z,17.5
2023-03-22T13:35:06.778Z,17.5
2023-03-22T13:37:03.449Z,17.5
2023-03-22T13:43:03.849Z,17.4
2023-03-22T13:45:03.971Z,17.4
2023-03-22T13:47:03.540Z,17.4
2023-03-22T13:49:03.574Z,17.4
2023-03-22T13:51:04.015Z,17.4
2023-03-22T13:55:03.834Z,17.4
2023-03-22T13:57:03.908Z,17.3
2023-03-22T13:59:03.858Z,17.2
2023-03-22T14:01:03.557Z,17.2
2023-03-22T14:03:04.206Z,17.1
2023-03-22T14:05:03.526Z,17.1
2023-03-22T14:07:03.546Z,17.1
2023-03-22T14:09:04.019Z,17.2
2023-03-22T14:11:03.522Z,17.1
2023-03-22T14:13:03.445Z,17.1
2023-03-22T14:15:04.309Z,17.1
2023-03-22T14:17:03.421Z,17.2
2023-03-22T14:19:03.417Z,17.2
2023-03-22T14:21:04.612Z,17.2
2023-03-22T14:53:03.453Z,17.2
2023-03-22T14:55:03.432Z,17.1
2023-03-22T14:57:04.297Z,17.1
2023-03-22T14:59:03.939Z,17.1
2023-03-22T15:01:03.529Z,17.1
2023-03-22T15:03:05.425Z,17.1
2023-03-22T15:07:03.524Z,17.1
2023-03-22T15:09:03.947Z,17.1
2023-03-22T15:11:04.311Z,17.1
2023-03-22T15:13:03.524Z,17
2023-03-22T15:15:12.545Z,17.1
2023-03-22T15:17:03.444Z,17
2023-03-22T15:19:03.461Z,17
2023-03-22T15:21:04.373Z,17
2023-03-22T15:23:03.431Z,17
2023-03-22T15:25:03.896Z,17
2023-03-22T15:27:04.078Z,17
2023-03-22T15:29:03.466Z,17
2023-03-22T15:31:03.443Z,17
2023-03-22T15:33:04.287Z,17
2023-03-22T15:35:03.462Z,17
2023-03-22T15:37:03.424Z,17.1
2023-03-22T15:39:03.911Z,17.1
2023-03-22T15:41:03.462Z,17.1
2023-03-22T15:43:03.433Z,17.1
2023-03-22T15:45:03.883Z,17.1
2023-03-22T15:47:03.449Z,17.1
2023-03-22T15:49:03.545Z,17.1
2023-03-22T15:51:03.915Z,17.1
2023-03-22T15:53:03.433Z,17
2023-03-22T15:55:03.428Z,16.9
2023-03-22T15:57:03.910Z,16.9
2023-03-22T15:59:03.433Z,16.9
2023-03-22T16:01:03.506Z,16.9
2023-03-22T16:03:03.895Z,16.9
2023-03-22T16:05:03.437Z,16.9
2023-03-22T16:09:04.406Z,16.9
2023-03-22T16:11:04.003Z,16.9
2023-03-22T16:13:03.475Z,16.9
2023-03-22T16:15:04.053Z,16.9
2023-03-22T16:17:03.534Z,16.9
2023-03-22T16:19:10.564Z,16.9
2023-03-22T16:21:03.917Z,16.8
2023-03-22T16:23:04.743Z,16.8
2023-03-22T16:25:03.497Z,16.8
2023-03-22T16:27:04.033Z,16.8
2023-03-22T16:29:05.319Z,16.8
2023-03-22T16:31:04.953Z,16.8
2023-03-22T16:33:03.948Z,16.8
2023-03-22T16:35:03.462Z,16.8
2023-03-22T16:37:04.734Z,16.7
2023-03-22T16:39:04.265Z,16.7
2023-03-22T16:41:03.452Z,16.7
2023-03-22T16:43:10.519Z,16.7
2023-03-22T16:45:04.332Z,16.7
2023-03-22T16:47:03.463Z,16.7
2023-03-22T16:49:04.831Z,16.7
2023-03-22T16:53:03.442Z,16.6
2023-03-22T16:55:03.443Z,16.6
2023-03-22T16:57:03.931Z,16.6
2023-03-22T16:59:03.433Z,16.6
2023-03-22T17:01:03.602Z,16.6
2023-03-22T17:03:04.730Z,16.6
2023-03-22T17:05:03.793Z,16.4
2023-03-22T17:07:03.459Z,16.1
2023-03-22T17:09:03.934Z,16.2
2023-03-22T17:11:03.496Z,16
2023-03-22T17:13:03.444Z,16
2023-03-22T17:15:03.923Z,15.8
2023-03-22T17:19:03.443Z,15.8
2023-03-22T17:21:03.912Z,15.7
2023-03-22T17:23:03.596Z,15.4
2023-03-22T17:25:03.553Z,15.5
2023-03-22T17:29:03.476Z,15.3
2023-03-22T17:31:03.485Z,15.2
2023-03-22T17:35:03.462Z,14.8
2023-03-22T17:37:03.452Z,14.9
2023-03-22T17:39:20.932Z,14.8
2023-03-22T17:41:03.988Z,14.6
2023-03-22T17:43:03.550Z,14.8
2023-03-22T17:47:30.409Z,14.4
2023-03-22T17:49:03.466Z,14.4
2023-03-22T17:51:03.905Z,14.4
2023-03-22T17:53:09.177Z,14.4
2023-03-22T17:55:17.837Z,14.3
2023-03-22T17:57:33.236Z,14.3
2023-03-22T17:59:03.857Z,14.2
2023-03-22T18:01:03.578Z,14.1
2023-03-22T18:03:04.051Z,14.1
2023-03-22T18:05:03.432Z,13.9
2023-03-22T18:07:04.029Z,14.2
2023-03-22T18:09:03.945Z,14.1
2023-03-22T18:11:04.217Z,14
2023-03-22T18:13:03.569Z,13.8
2023-03-22T18:15:03.912Z,13.8
2023-03-22T18:17:03.594Z,13.8
2023-03-22T18:19:03.542Z,13.9
2023-03-22T18:21:04.076Z,13.9
2023-03-22T18:23:03.996Z,13.7
2023-03-22T18:25:03.542Z,13.5
2023-03-22T18:27:10.836Z,13.5
2023-03-22T18:29:03.441Z,13.5
2023-03-22T18:31:03.514Z,13.5
2023-03-22T18:33:06.020Z,13.5
2023-03-22T18:35:04.408Z,13.2
2023-03-22T18:37:03.565Z,13.2
2023-03-22T18:39:47.432Z,13.1
2023-03-22T18:41:20.329Z,13.2
2023-03-22T18:43:03.453Z,13
2023-03-22T18:45:04.064Z,13.1
2023-03-22T18:47:03.895Z,13.1
2023-03-22T18:49:03.949Z,13.1
2023-03-22T18:51:10.702Z,13.1
2023-03-22T18:55:12.298Z,13.1
2023-03-22T18:59:03.470Z,13.1
2023-03-22T19:01:03.507Z,13
2023-03-22T19:03:03.988Z,12.9
2023-03-22T19:05:03.456Z,13.1
2023-03-22T19:07:04.465Z,12.9
2023-03-22T19:09:03.986Z,13.2
2023-03-22T19:13:04.042Z,13.1
2023-03-22T19:17:03.933Z,13.1
2023-03-22T19:21:11.731Z,12.7
2023-03-22T19:23:03.868Z,12.7
2023-03-22T19:25:03.558Z,12.3
2023-03-22T19:27:16.126Z,11.5
2023-03-22T19:29:03.471Z,11.5
2023-03-22T19:31:03.877Z,11.5
2023-03-22T19:33:27.503Z,11.7
2023-03-22T19:37:03.451Z,12.2
2023-03-22T19:39:07.442Z,12.4
2023-03-22T19:41:35.883Z,12.1
2023-03-22T19:43:03.465Z,12.1
2023-03-22T19:45:04.413Z,12
2023-03-22T19:47:03.525Z,12
2023-03-22T19:49:03.470Z,11.9
2023-03-22T19:51:03.958Z,12
2023-03-22T19:53:20.948Z,11.9
2023-03-22T19:55:03.849Z,11.8
2023-03-22T19:57:04.789Z,11.8
2023-03-22T19:59:03.462Z,11.7
2023-03-22T20:01:04.484Z,11.7
2023-03-22T20:03:04.706Z,11.7
2023-03-22T20:05:11.329Z,11.7
2023-03-22T20:07:04.246Z,12.1
2023-03-22T20:09:04.541Z,11.8
2023-03-22T20:11:04.091Z,11.9
2023-03-22T20:15:04.456Z,11.7
2023-03-22T20:17:05.640Z,11.7
2023-03-22T20:21:04.805Z,11.6
2023-03-22T20:23:03.461Z,11.6
2023-03-22T20:25:03.503Z,11.4
2023-03-22T20:29:03.820Z,11.5
2023-03-22T20:31:03.597Z,11.4
2023-03-22T20:35:03.497Z,11.6
2023-03-22T20:37:03.498Z,11.6
2023-03-22T20:39:03.962Z,11.6
2023-03-22T20:41:04.256Z,11.7
2023-03-22T20:43:03.623Z,11.6
2023-03-22T20:47:03.520Z,11.5
2023-03-22T20:49:03.492Z,11.5
2023-03-22T20:51:03.981Z,11.4
2023-03-22T20:53:03.944Z,11.4
2023-03-22T20:55:03.560Z,11.3
2023-03-22T20:57:04.333Z,11.5
2023-03-22T20:59:03.903Z,11.6
2023-03-22T21:01:04.270Z,11.5
2023-03-22T21:03:04.097Z,11.5
2023-03-22T21:05:03.592Z,11.5
2023-03-22T21:07:03.574Z,11.5
2023-03-22T21:09:03.967Z,11.4
2023-03-22T21:11:03.949Z,11.5
2023-03-22T21:13:03.575Z,11.4
2023-03-22T21:17:03.490Z,11.3
2023-03-22T21:19:03.487Z,11.3
2023-03-22T21:21:03.979Z,11.2
2023-03-22T21:23:03.465Z,11.1
2023-03-22T21:25:03.474Z,11
2023-03-22T21:29:03.491Z,11.1
2023-03-22T21:31:03.507Z,11.1
2023-03-22T21:33:03.977Z,11
2023-03-22T21:35:03.518Z,11
2023-03-22T21:37:03.501Z,11.1
2023-03-22T21:39:04.313Z,11.2
2023-03-22T21:41:03.959Z,11.2
2023-03-22T21:43:03.573Z,11.1
2023-03-22T21:47:06.533Z,11.1
2023-03-22T21:49:03.490Z,11.1
2023-03-22T21:51:03.952Z,11.2
2023-03-22T21:53:03.494Z,11
2023-03-22T21:55:03.485Z,11
2023-03-22T21:57:03.950Z,10.9
2023-03-22T21:59:06.326Z,10.7
2023-03-22T22:01:03.546Z,10.8
2023-03-22T22:05:03.778Z,10.5
2023-03-22T22:07:03.475Z,10.8
2023-03-22T22:09:03.981Z,10.8
2023-03-22T22:11:03.961Z,10.8
2023-03-22T22:13:03.579Z,10.9
2023-03-22T22:15:04.132Z,10.8
2023-03-22T22:17:03.580Z,10.8
2023-03-22T22:19:03.472Z,10.7
2023-03-22T22:23:04.781Z,10.8
2023-03-22T22:25:03.485Z,10.8
2023-03-22T22:27:04.004Z,10.8
2023-03-22T22:29:03.947Z,10.9
2023-03-22T22:31:03.531Z,10.8
2023-03-22T22:33:04.566Z,10.8
2023-03-22T22:35:03.948Z,10.9
2023-03-22T22:39:05.419Z,10.8
2023-03-22T22:41:03.952Z,10.7
2023-03-22T22:43:03.970Z,10.8
2023-03-22T22:45:04.066Z,10.7
2023-03-22T22:47:03.584Z,10.8
2023-03-22T22:53:03.496Z,10.9
2023-03-22T22:55:03.488Z,10.9
2023-03-22T22:57:06.329Z,10.9
2023-03-22T23:01:07.631Z,10.7
2023-03-22T23:03:04.406Z,10.7
2023-03-22T23:05:03.506Z,10.8
2023-03-22T23:07:04.252Z,10.7
2023-03-22T23:09:04.117Z,10.7
2023-03-22T23:11:06.316Z,10.8
2023-03-22T23:13:03.499Z,10.7
2023-03-22T23:15:03.950Z,10.7
2023-03-22T23:17:03.501Z,10.7
2023-03-22T23:19:03.502Z,10.8
2023-03-22T23:21:03.963Z,10.9
2023-03-22T23:25:03.509Z,10.6
2023-03-22T23:27:03.975Z,10.7
2023-03-22T23:29:04.384Z,10.7
2023-03-22T23:31:03.532Z,10.7
2023-03-22T23:33:03.974Z,10.6
2023-03-22T23:35:03.521Z,10.6
2023-03-22T23:41:03.898Z,10.7
2023-03-22T23:43:03.600Z,10.8
2023-03-22T23:45:04.069Z,10.9
2023-03-22T23:47:03.580Z,10.9
2023-03-22T23:49:03.594Z,11
2023-03-22T23:51:04.040Z,10.9
2023-03-22T23:53:03.490Z,10.6
2023-03-22T23:55:03.511Z,10.8
2023-03-22T23:57:04.016Z,10.8
2023-03-22T23:59:03.874Z,10.7
